In Rescue
 
Open Full Screen Window  High Contrast Mode
November 25, 2020 5:37 AM EST
Present Weather: Mist
Weather Information
Wind Direction
  ---
Wind Speed
  00 kt (0 mph)
Wind Gust
  00 kt (0 mph)
Altimeter
29.89 in
Visibility
2 1/2 SM
Temperature
02° C
36° F
Dewpoint
02° C
36° F
Humidity
100%
1hr Rain Fall
00.00 in.
24hr Rain Fall
00.15 in.
Sky Condition
Overcast @ 300 ft
LIFR

METAR KMOP 251037Z AUTO 00000KT 2 1/2SM BR OVC003 02/02 A2989 RMK AO2 T00220022

FAA Disclaimer: The data displayed is for advisory purposes only and is not to be used for flight planning or operations.